Time;durP1;ratioP1;P1;durP2;ratioP2;P2;SDS_P1;SDS_P2;PMS_P1;PMS_P2;Temp;Humidity;BMP_temperature;BMP_pressure;BME280_temperature;BME280_humidity;BME280_pressure;Samples;Min_cycle;Max_cycle;Signal;HPM_P1;HPM_P2
2022/01/14 00:01:42;;;;;;;27.37;21.25;;;1.80;52.00;;;;;;20731;6841;118805;-84
2022/01/14 00:04:07;;;;;;;28.77;21.83;;;1.60;52.10;;;;;;20680;6853;121983;-84
2022/01/14 00:06:33;;;;;;;28.38;20.55;;;1.50;52.50;;;;;;20759;6830;117596;-85
2022/01/14 00:09:18;;;;;;;27.67;20.83;;;1.30;52.70;;;;;;20768;6830;117302;-85
2022/01/14 00:11:30;;;;;;;29.30;21.17;;;1.20;53.00;;;;;;20641;6830;121363;-85
2022/01/14 00:14:08;;;;;;;27.67;20.67;;;1.10;53.20;;;;;;20745;6830;150855;-85
2022/01/14 00:16:21;;;;;;;27.40;20.53;;;1.10;53.40;;;;;;20684;6847;117811;-85
2022/01/14 00:18:47;;;;;;;29.13;26.00;;;1.30;54.00;;;;;;20563;6830;307299;-85
2022/01/14 00:21:13;;;;;;;27.30;21.00;;;1.30;54.00;;;;;;20723;6847;117418;-85
2022/01/14 00:23:42;;;;;;;29.20;26.12;;;1.40;53.40;;;;;;20561;6830;315036;-86
2022/01/14 00:31:43;;;;;;;29.60;21.67;;;2.40;52.10;;;;;;20772;6830;118157;-85
2022/01/14 00:34:04;;;;;;;28.07;25.07;;;2.30;52.00;;;;;;20484;6830;277707;-87
2022/01/14 00:36:30;;;;;;;27.77;24.87;;;2.30;51.90;;;;;;20396;6847;313794;-85
2022/01/14 00:38:55;;;;;;;28.77;25.77;;;2.50;51.40;;;;;;20535;6830;278051;-85
2022/01/14 00:41:21;;;;;;;28.27;25.40;;;2.70;50.80;;;;;;20507;6830;312375;-86
2022/01/14 00:43:46;;;;;;;28.50;22.02;;;2.90;50.30;;;;;;20701;6847;117700;-86
2022/01/14 00:46:15;;;;;;;28.85;25.70;;;2.80;50.20;;;;;;20524;6830;306805;-85
2022/01/14 00:48:41;;;;;;;28.07;25.07;;;2.70;50.30;;;;;;20491;6847;342159;-86
2022/01/14 00:51:07;;;;;;;29.37;22.48;;;2.70;50.30;;;;;;20761;6830;117282;-85
2022/01/14 00:53:34;;;;;;;27.10;24.17;;;2.70;50.00;;;;;;20483;6847;311840;-85
2022/01/14 00:56:08;;;;;;;25.17;20.50;;;2.60;50.20;;;;;;20752;6830;117788;-85
2022/01/14 01:01:12;;;;;;;25.87;20.37;;;2.50;50.40;;;;;;20720;6847;118082;-86
2022/01/14 01:03:38;;;;;;;22.93;19.73;;;2.20;50.80;;;;;;20780;6830;117127;-86
2022/01/14 01:06:04;;;;;;;25.47;19.70;;;2.10;50.70;;;;;;20691;6847;121875;-87
2022/01/14 01:08:31;;;;;;;27.77;24.77;;;2.00;51.20;;;;;;20565;6830;307944;-87
2022/01/14 01:10:55;;;;;;;28.47;22.07;;;2.00;51.50;;;;;;20769;6830;118784;-85
2022/01/14 01:13:28;;;;;;;27.13;24.20;;;2.10;51.30;;;;;;20517;6847;307735;-85
2022/01/14 01:15:46;;;;;;;25.20;20.13;;;2.20;51.40;;;;;;20774;6830;117109;-85
2022/01/14 01:18:11;;;;;;;26.30;20.33;;;2.10;51.10;;;;;;20776;6830;117265;-85
2022/01/14 01:20:37;;;;;;;24.77;19.53;;;1.90;51.30;;;;;;20770;6830;118792;-87
2022/01/14 01:23:04;;;;;;;24.00;19.65;;;1.70;51.60;;;;;;20772;6830;121021;-85
2022/01/14 01:25:37;;;;;;;31.33;25.37;;;1.60;52.00;;;;;;20604;6830;335167;-85
2022/01/14 01:27:55;;;;;;;30.75;22.37;;;1.70;52.20;;;;;;20808;6838;117335;-86
2022/01/14 01:32:56;;;;;;;22.63;20.03;;;1.90;51.90;;;;;;20725;6845;121323;-85
2022/01/14 01:35:23;;;;;;;28.00;23.75;;;1.90;51.60;;;;;;20485;6853;340822;-85
2022/01/14 01:37:48;;;;;;;23.30;19.97;;;2.00;51.80;;;;;;20727;6838;119701;-85
2022/01/14 01:40:14;;;;;;;21.97;18.13;;;2.00;51.50;;;;;;20709;6838;117828;-85
2022/01/14 01:42:39;;;;;;;24.00;21.52;;;1.80;51.70;;;;;;20510;6838;307868;-85
2022/01/14 01:45:09;;;;;;;23.20;18.67;;;1.90;52.00;;;;;;20728;6838;117454;-85
2022/01/14 01:47:31;;;;;;;22.37;17.30;;;2.00;51.80;;;;;;20721;6838;117571;-85
2022/01/14 01:49:56;;;;;;;22.03;17.57;;;1.80;51.90;;;;;;20728;6838;120787;-85
2022/01/14 01:52:22;;;;;;;20.35;17.62;;;1.70;52.20;;;;;;20746;6838;121102;-85
2022/01/14 01:54:47;;;;;;;22.40;20.10;;;1.50;52.30;;;;;;20535;6838;278256;-85
2022/01/14 01:57:14;;;;;;;23.27;19.25;;;1.80;52.20;;;;;;20742;6838;117920;-85
2022/01/14 01:59:42;;;;;;;22.77;17.90;;;1.80;52.20;;;;;;20726;6838;117819;-85
2022/01/14 02:02:07;;;;;;;23.53;17.20;;;1.70;52.20;;;;;;20729;6838;117772;-85
2022/01/14 02:04:33;;;;;;;21.65;16.00;;;1.60;52.40;;;;;;20754;6838;118735;-85
2022/01/14 02:07:00;;;;;;;19.85;15.77;;;1.50;53.20;;;;;;20753;6838;117825;-85
2022/01/14 02:09:25;;;;;;;22.87;20.57;;;1.40;52.60;;;;;;20537;6837;277775;-86
2022/01/14 02:11:51;;;;;;;19.57;17.07;;;1.60;52.60;;;;;;20757;6838;117484;-86
2022/01/14 02:14:41;;;;;;;22.52;16.83;;;1.70;52.10;;;;;;20747;6838;121383;-85
2022/01/14 02:17:16;;;;;;;18.37;16.37;;;1.60;52.20;;;;;;20678;6838;121068;-87
2022/01/14 02:19:27;;;;;;;22.17;19.90;;;1.50;52.40;;;;;;20480;6838;299783;-87
2022/01/14 02:24:56;;;;;;;22.43;18.03;;;2.00;51.80;;;;;;20746;6838;117748;-86
2022/01/14 02:27:00;;;;;;;19.67;16.65;;;2.00;51.30;;;;;;20685;6838;117778;-87
2022/01/14 02:29:25;;;;;;;23.20;16.17;;;1.80;51.60;;;;;;20739;6838;119134;-87
2022/01/14 02:31:51;;;;;;;23.92;21.42;;;1.70;51.90;;;;;;20530;6838;311858;-87
2022/01/14 02:34:17;;;;;;;25.10;22.42;;;1.80;52.20;;;;;;20581;6838;307477;-87
2022/01/14 02:36:42;;;;;;;22.67;18.95;;;2.10;51.80;;;;;;20828;6838;116640;-87
2022/01/14 02:39:08;;;;;;;23.47;18.40;;;2.10;51.50;;;;;;20806;6838;118218;-87
2022/01/14 02:41:33;;;;;;;22.70;17.10;;;1.90;51.70;;;;;;20735;6838;117361;-87
2022/01/14 02:44:06;;;;;;;21.23;17.33;;;1.60;52.40;;;;;;20692;6838;121107;-90
2022/01/14 02:46:38;;;;;;;20.63;17.63;;;1.50;52.30;;;;;;20682;6838;118471;-87
2022/01/14 02:48:59;;;;;;;25.07;22.37;;;1.40;52.60;;;;;;20503;6838;307829;-87
2022/01/14 02:51:24;;;;;;;22.80;18.53;;;1.60;52.50;;;;;;20729;6838;117341;-90
2022/01/14 02:53:59;;;;;;;21.77;17.45;;;1.60;52.00;;;;;;20731;6838;117329;-88
2022/01/14 02:56:21;;;;;;;22.77;18.70;;;1.40;52.10;;;;;;20800;6838;117035;-86
2022/01/14 02:58:47;;;;;;;21.52;17.87;;;1.20;52.30;;;;;;20816;6838;116426;-87
2022/01/14 03:01:12;;;;;;;24.80;19.05;;;1.10;52.50;;;;;;20825;6838;117745;-87
2022/01/14 03:03:38;;;;;;;20.27;18.02;;;1.00;52.70;;;;;;20818;6838;116342;-87
2022/01/14 03:06:04;;;;;;;21.30;17.42;;;0.90;53.00;;;;;;20718;6838;118617;-87
2022/01/14 03:08:29;;;;;;;21.07;16.97;;;0.70;53.00;;;;;;20740;6838;116630;-87
2022/01/14 03:10:55;;;;;;;23.40;17.77;;;0.70;53.20;;;;;;20734;6838;117377;-87
2022/01/14 03:13:22;;;;;;;22.20;17.80;;;0.60;53.30;;;;;;20727;6838;119074;-87
2022/01/14 03:15:48;;;;;;;27.07;23.67;;;0.70;53.40;;;;;;20528;6838;283275;-87
2022/01/14 03:18:17;;;;;;;27.03;24.17;;;0.60;53.30;;;;;;20507;6838;279028;-87
2022/01/14 03:20:48;;;;;;;25.10;19.67;;;1.00;52.00;;;;;;20735;6837;117884;-87
2022/01/14 03:23:11;;;;;;;26.55;23.73;;;1.00;52.00;;;;;;20522;6838;281533;-88
2022/01/14 03:25:55;;;;;;;27.37;24.37;;;1.10;51.90;;;;;;20531;6838;282190;-87
2022/01/14 03:28:03;;;;;;;22.30;19.27;;;1.40;51.50;;;;;;20587;6838;120534;-87
2022/01/14 03:30:28;;;;;;;26.70;23.90;;;1.30;51.20;;;;;;20530;6838;308268;-87
2022/01/14 03:32:54;;;;;;;27.57;20.30;;;1.30;51.50;;;;;;20742;6838;117715;-87
2022/01/14 03:35:20;;;;;;;27.60;23.33;;;1.20;51.50;;;;;;20534;6838;279426;-87
2022/01/14 03:37:45;;;;;;;24.13;20.57;;;1.20;52.00;;;;;;20741;6838;118564;-87
2022/01/14 03:40:12;;;;;;;23.62;19.15;;;1.20;51.90;;;;;;20721;6838;118599;-86
2022/01/14 03:42:36;;;;;;;25.80;18.20;;;1.00;52.30;;;;;;20741;6838;118812;-86
2022/01/14 03:45:02;;;;;;;24.12;18.10;;;0.80;52.70;;;;;;20743;6838;117739;-86
2022/01/14 03:47:29;;;;;;;26.73;18.43;;;0.70;53.10;;;;;;20741;6838;118187;-86
2022/01/14 03:49:54;;;;;;;27.30;18.53;;;0.60;53.40;;;;;;20728;6838;118951;-86
2022/01/14 03:52:21;;;;;;;27.27;23.33;;;0.50;53.60;;;;;;20540;6838;277901;-86
2022/01/14 03:54:48;;;;;;;24.27;20.87;;;0.70;53.70;;;;;;20751;6838;121685;-86
2022/01/14 03:57:12;;;;;;;21.10;16.70;;;0.80;53.20;;;;;;20744;6838;124009;-86
2022/01/14 03:59:38;;;;;;;24.77;17.42;;;0.70;53.30;;;;;;20753;6838;121057;-86
2022/01/14 04:02:04;;;;;;;25.17;22.50;;;0.50;53.40;;;;;;20507;6838;312842;-86
2022/01/14 04:04:30;;;;;;;25.43;22.80;;;1.10;53.20;;;;;;20524;6838;306956;-85
2022/01/14 04:06:56;;;;;;;26.70;23.83;;;1.10;53.20;;;;;;20526;6838;281572;-85
2022/01/14 04:09:21;;;;;;;26.27;23.50;;;1.40;52.20;;;;;;20528;6838;308375;-86
2022/01/14 04:11:47;;;;;;;26.47;19.10;;;1.70;51.70;;;;;;20743;6838;117386;-86
2022/01/14 04:16:52;;;;;;;24.12;21.52;;;1.40;52.00;;;;;;20530;6838;337764;-86
2022/01/14 04:19:18;;;;;;;24.30;21.73;;;1.50;52.40;;;;;;20525;6838;278663;-86
2022/01/14 04:21:43;;;;;;;25.25;22.65;;;1.80;51.90;;;;;;20535;6838;281468;-86
2022/01/14 04:24:10;;;;;;;24.80;22.23;;;2.00;51.20;;;;;;20500;6838;301963;-85
2022/01/14 04:26:36;;;;;;;25.52;22.80;;;2.20;50.50;;;;;;20533;6838;278349;-86
2022/01/14 04:29:01;;;;;;;21.30;18.93;;;2.40;49.90;;;;;;20729;6838;117266;-86
2022/01/14 04:31:27;;;;;;;25.52;17.75;;;2.10;49.70;;;;;;20734;6838;117938;-86
2022/01/14 04:33:52;;;;;;;25.73;22.67;;;1.80;50.20;;;;;;20513;6837;303581;-86
2022/01/14 04:36:19;;;;;;;23.25;19.60;;;1.60;50.50;;;;;;20747;6838;118081;-86
2022/01/14 04:38:44;;;;;;;22.53;17.60;;;1.60;50.50;;;;;;20747;6838;117383;-86
2022/01/14 04:41:10;;;;;;;20.90;17.27;;;1.30;50.80;;;;;;20741;6838;116981;-86
2022/01/14 04:43:35;;;;;;;20.88;17.85;;;1.10;51.30;;;;;;20742;6838;119651;-86
2022/01/14 04:46:34;;;;;;;23.73;17.42;;;0.90;51.70;;;;;;20703;6838;117393;-86
2022/01/14 04:48:30;;;;;;;26.60;23.37;;;0.90;52.10;;;;;;20473;6838;282677;-87
2022/01/14 04:50:57;;;;;;;22.37;17.57;;;0.90;52.10;;;;;;20734;6838;124476;-86
2022/01/14 04:53:24;;;;;;;24.67;18.87;;;0.90;51.80;;;;;;20727;6838;117415;-86
2022/01/14 04:55:49;;;;;;;27.85;23.90;;;0.80;52.00;;;;;;20516;6838;338864;-86
2022/01/14 04:58:15;;;;;;;26.45;23.70;;;0.90;52.30;;;;;;20497;6838;277783;-89
2022/01/14 05:00:42;;;;;;;21.47;17.80;;;1.20;51.70;;;;;;20723;6838;117064;-88
2022/01/14 05:03:12;;;;;;;25.33;18.63;;;1.20;51.50;;;;;;20746;6838;117414;-93
2022/01/14 05:05:40;;;;;;;27.47;23.97;;;1.00;51.70;;;;;;20525;6838;282451;-91
2022/01/14 05:08:08;;;;;;;27.87;24.23;;;1.10;52.10;;;;;;20505;6838;337312;-91
2022/01/14 05:12:54;;;;;;;27.90;24.90;;;1.60;51.10;;;;;;20536;6838;282903;-90
2022/01/14 05:15:20;;;;;;;26.13;19.30;;;1.80;50.70;;;;;;20745;6838;117515;-91
2022/01/14 05:17:53;;;;;;;23.40;18.90;;;1.70;50.60;;;;;;20763;6838;117358;-94
2022/01/14 05:20:16;;;;;;;25.98;23.23;;;1.40;51.00;;;;;;20518;6838;277685;-90
2022/01/14 05:22:42;;;;;;;26.63;23.30;;;1.40;51.40;;;;;;20532;6838;307531;-91
2022/01/14 05:25:08;;;;;;;22.83;19.07;;;1.50;50.80;;;;;;20753;6838;117291;-91
2022/01/14 05:27:34;;;;;;;23.70;18.87;;;1.50;50.70;;;;;;20744;6838;118367;-91
2022/01/14 05:29:59;;;;;;;25.98;22.90;;;1.20;51.10;;;;;;20452;6838;278270;-88
2022/01/14 05:32:27;;;;;;;24.53;19.87;;;1.20;51.20;;;;;;20789;6838;67767;-92
2022/01/14 05:34:51;;;;;;;26.07;22.40;;;1.20;51.10;;;;;;20540;6838;278315;-90
2022/01/14 05:37:16;;;;;;;23.67;19.37;;;1.30;51.30;;;;;;20765;6838;118382;-91
2022/01/14 05:39:42;;;;;;;23.73;18.23;;;1.20;51.00;;;;;;20756;6838;118715;-92
2022/01/14 05:42:08;;;;;;;20.95;17.67;;;1.00;51.20;;;;;;20747;6838;117479;-92
2022/01/14 05:44:33;;;;;;;25.20;22.50;;;0.80;51.60;;;;;;20539;6836;290809;-89
2022/01/14 05:46:59;;;;;;;23.90;19.42;;;0.90;51.80;;;;;;20754;6838;117770;-88
2022/01/14 05:49:24;;;;;;;22.57;17.77;;;0.90;51.60;;;;;;20734;6838;117835;-90
2022/01/14 05:51:51;;;;;;;25.77;23.00;;;0.70;51.80;;;;;;20530;6838;308686;-88
2022/01/14 05:54:17;;;;;;;22.53;18.33;;;0.90;52.30;;;;;;20740;6838;117701;-89
2022/01/14 05:56:42;;;;;;;23.58;17.20;;;0.90;51.80;;;;;;20757;6838;117525;-89
2022/01/14 05:59:08;;;;;;;22.62;17.35;;;0.80;52.00;;;;;;20796;6838;117349;-91
2022/01/14 06:01:33;;;;;;;26.73;22.73;;;0.60;52.20;;;;;;20574;6838;286536;-90
2022/01/14 06:03:59;;;;;;;26.08;23.38;;;0.70;52.30;;;;;;20515;6838;278293;-91
2022/01/14 06:06:25;;;;;;;25.60;22.97;;;1.00;51.40;;;;;;20532;6838;283556;-92
2022/01/14 06:08:52;;;;;;;26.85;23.30;;;1.50;50.00;;;;;;20546;6838;278043;-90
2022/01/14 06:11:17;;;;;;;22.43;18.77;;;1.50;50.00;;;;;;20761;6838;116491;-90
2022/01/14 06:13:43;;;;;;;27.07;23.57;;;1.30;49.80;;;;;;20546;6838;280902;-91
2022/01/14 06:16:09;;;;;;;25.08;22.40;;;1.30;50.00;;;;;;20533;6838;308228;-91
2022/01/14 06:18:34;;;;;;;25.70;19.77;;;1.40;49.60;;;;;;20755;6838;118720;-89
2022/01/14 06:21:00;;;;;;;26.42;23.25;;;1.30;49.60;;;;;;20533;6838;292685;-92
2022/01/14 06:23:26;;;;;;;21.40;18.23;;;1.10;50.10;;;;;;20754;6838;122046;-92
2022/01/14 06:25:52;;;;;;;22.47;17.37;;;1.10;50.10;;;;;;20759;6838;117858;-89
2022/01/14 06:28:17;;;;;;;24.65;21.95;;;0.90;50.50;;;;;;20552;6838;280809;-88
2022/01/14 06:30:43;;;;;;;21.80;17.30;;;0.90;51.00;;;;;;20760;6838;117391;-87
2022/01/14 06:33:08;;;;;;;25.52;22.83;;;0.90;51.00;;;;;;20542;6838;297688;-90
2022/01/14 06:35:34;;;;;;;21.73;18.17;;;0.90;51.10;;;;;;20762;6838;116930;-90
2022/01/14 06:38:01;;;;;;;28.70;23.77;;;0.90;51.00;;;;;;20530;6838;278186;-88
2022/01/14 06:40:26;;;;;;;21.87;18.03;;;1.00;51.30;;;;;;20756;6838;117656;-90
2022/01/14 06:42:53;;;;;;;21.70;17.45;;;0.80;51.40;;;;;;20754;6838;117864;-91
2022/01/14 06:45:18;;;;;;;24.23;21.67;;;0.80;51.30;;;;;;20547;6838;278018;-91
2022/01/14 06:47:45;;;;;;;24.40;18.40;;;0.90;51.80;;;;;;20755;6838;122082;-91
2022/01/14 06:50:12;;;;;;;25.80;22.93;;;0.80;51.40;;;;;;20599;6838;278001;-88
2022/01/14 06:52:39;;;;;;;21.87;17.73;;;0.90;51.40;;;;;;20804;6838;117306;-95
2022/01/14 06:55:05;;;;;;;19.43;17.33;;;0.90;51.20;;;;;;20804;6837;117040;-91
2022/01/14 06:57:32;;;;;;;22.03;16.73;;;0.70;51.40;;;;;;20770;6837;115397;-92
2022/01/14 06:59:58;;;;;;;20.77;16.13;;;0.50;51.80;;;;;;20725;6838;118509;-92
2022/01/14 07:02:24;;;;;;;22.40;16.67;;;0.20;52.40;;;;;;20748;6838;118623;-91
2022/01/14 07:04:49;;;;;;;21.47;16.37;;;0.20;52.30;;;;;;20778;6838;117303;-91
2022/01/14 07:07:15;;;;;;;19.03;16.17;;;0.10;52.60;;;;;;20808;6838;116572;-91
2022/01/14 07:09:56;;;;;;;20.10;16.67;;;0.00;52.80;;;;;;20828;6838;68815;-91
2022/01/14 07:12:21;;;;;;;23.13;16.00;;;0.00;53.10;;;;;;20803;6838;117273;-92
2022/01/14 07:14:48;;;;;;;22.93;15.93;;;-0.10;53.30;;;;;;20789;6838;116861;-92
2022/01/14 07:17:14;;;;;;;25.23;21.57;;;-0.10;53.40;;;;;;20593;6838;306287;-92
2022/01/14 07:19:40;;;;;;;21.70;17.50;;;0.10;53.40;;;;;;20801;6838;116670;-93
2022/01/14 07:22:09;;;;;;;21.42;17.25;;;0.30;53.00;;;;;;20823;6838;118701;-92
2022/01/14 07:24:36;;;;;;;21.40;16.47;;;0.20;53.00;;;;;;20805;6838;121176;-92
2022/01/14 07:27:01;;;;;;;22.47;16.20;;;0.10;53.10;;;;;;20798;6838;116829;-91
2022/01/14 07:29:26;;;;;;;19.42;15.75;;;0.10;53.30;;;;;;20810;6838;116973;-93
2022/01/14 07:31:52;;;;;;;21.27;15.60;;;0.00;53.40;;;;;;20829;6838;68820;-92
2022/01/14 07:34:18;;;;;;;23.60;21.20;;;0.00;53.60;;;;;;20408;6838;307999;-92
2022/01/14 07:36:43;;;;;;;23.10;20.70;;;0.20;54.10;;;;;;20602;6838;306215;-92
2022/01/14 07:39:09;;;;;;;23.15;18.73;;;0.60;52.70;;;;;;20803;6838;116831;-92
2022/01/14 07:41:34;;;;;;;22.30;17.60;;;0.70;52.20;;;;;;20827;6838;71059;-93
2022/01/14 07:44:01;;;;;;;24.90;22.27;;;0.60;52.30;;;;;;20575;6838;307706;-92
2022/01/14 07:46:26;;;;;;;25.12;22.42;;;0.70;52.30;;;;;;20592;6838;307061;-93
2022/01/14 07:48:51;;;;;;;24.13;21.60;;;1.10;51.50;;;;;;20606;6838;276780;-93
2022/01/14 07:51:17;;;;;;;23.42;21.02;;;1.40;50.80;;;;;;20582;6838;306736;-93
2022/01/14 07:53:42;;;;;;;24.33;21.83;;;1.70;50.00;;;;;;20589;6838;307138;-93
2022/01/14 07:56:11;;;;;;;20.83;17.73;;;1.90;49.50;;;;;;20743;6838;116617;-93
2022/01/14 07:58:33;;;;;;;22.47;16.83;;;1.80;49.60;;;;;;20757;6838;119648;-93
2022/01/14 08:00:59;;;;;;;26.17;22.13;;;1.50;50.20;;;;;;20595;6838;276923;-93
2022/01/14 08:03:24;;;;;;;24.47;21.67;;;1.60;50.60;;;;;;20593;6838;306431;-93
2022/01/14 08:05:53;;;;;;;24.00;21.50;;;1.90;50.00;;;;;;20578;6838;307130;-93
2022/01/14 08:08:17;;;;;;;21.27;19.02;;;2.20;49.20;;;;;;20776;6836;116836;-94
2022/01/14 08:10:45;;;;;;;23.00;20.70;;;2.10;49.10;;;;;;20615;6838;306618;-93
2022/01/14 08:13:11;;;;;;;19.50;17.30;;;2.20;49.20;;;;;;20845;6838;72032;-95
2022/01/14 08:15:37;;;;;;;18.92;16.87;;;2.20;49.20;;;;;;20815;6838;116716;-94
2022/01/14 08:32:06;;;;;;;17.57;15.67;;;2.00;53.00;;;;;;20837;6505;285481;-87
2022/01/14 08:34:35;;;;;;;17.50;13.80;;;2.40;53.60;;;;;;20939;6792;67365;-91
2022/01/14 08:37:01;;;;;;;14.43;13.07;;;2.80;53.30;;;;;;20828;6780;116885;-92
2022/01/14 08:39:26;;;;;;;14.93;12.95;;;3.10;53.10;;;;;;20748;6848;117498;-89
2022/01/14 08:41:55;;;;;;;16.35;14.75;;;3.30;52.80;;;;;;20438;6863;338808;-88
2022/01/14 08:44:19;;;;;;;14.82;13.30;;;3.70;51.80;;;;;;20611;6880;118407;-90
2022/01/14 08:46:45;;;;;;;15.47;13.87;;;4.00;51.20;;;;;;20705;6847;117288;-91
2022/01/14 08:49:10;;;;;;;17.98;14.68;;;4.20;51.00;;;;;;20711;6847;117804;-90
2022/01/14 08:51:37;;;;;;;14.40;12.93;;;4.30;51.00;;;;;;20730;6848;116671;-91
2022/01/14 08:54:04;;;;;;;16.45;14.95;;;4.30;50.80;;;;;;20457;6848;337012;-90
2022/01/14 08:56:30;;;;;;;16.10;14.63;;;4.60;49.80;;;;;;20549;6834;309562;-91
2022/01/14 08:58:55;;;;;;;16.45;15.05;;;5.10;48.50;;;;;;20567;6834;278198;-91
2022/01/14 09:01:21;;;;;;;15.00;13.60;;;5.70;47.30;;;;;;20760;6834;117697;-91
2022/01/14 09:03:47;;;;;;;16.63;15.07;;;5.70;47.30;;;;;;20478;6849;308417;-89
2022/01/14 09:06:12;;;;;;;16.02;14.52;;;5.80;46.60;;;;;;20550;6834;321392;-88
2022/01/14 09:08:38;;;;;;;14.82;13.43;;;6.10;46.20;;;;;;20778;6834;117520;-91
2022/01/14 09:11:04;;;;;;;14.50;13.03;;;6.20;46.50;;;;;;20775;6837;118211;-88
2022/01/14 09:13:29;;;;;;;14.77;13.23;;;6.20;46.90;;;;;;20796;6837;122360;-89
2022/01/14 09:15:56;;;;;;;15.48;13.98;;;6.10;47.20;;;;;;20554;6846;336796;-91
2022/01/14 09:18:20;;;;;;;16.00;14.57;;;6.30;46.30;;;;;;20550;6846;317933;-91
2022/01/14 09:20:51;;;;;;;14.87;13.45;;;6.70;45.40;;;;;;20785;6846;117872;-91
2022/01/14 09:23:23;;;;;;;15.13;13.63;;;6.80;45.50;;;;;;20742;6846;116468;-91
2022/01/14 09:25:42;;;;;;;16.07;13.30;;;6.60;46.10;;;;;;20762;6846;116651;-89
2022/01/14 09:28:08;;;;;;;16.10;14.50;;;6.60;46.10;;;;;;20567;6846;278481;-88
2022/01/14 09:30:34;;;;;;;16.10;14.70;;;6.70;44.90;;;;;;20592;6846;299771;-90
2022/01/14 09:33:02;;;;;;;15.53;14.13;;;7.00;44.70;;;;;;20811;6846;67415;-91
2022/01/14 09:35:27;;;;;;;15.80;14.47;;;7.10;44.30;;;;;;20562;6846;308110;-92
2022/01/14 09:37:54;;;;;;;15.95;14.30;;;7.20;43.60;;;;;;20771;6846;118664;-91
2022/01/14 09:40:18;;;;;;;13.77;12.57;;;7.20;44.00;;;;;;20798;6837;116693;-91
2022/01/14 09:42:44;;;;;;;16.05;14.55;;;7.00;44.50;;;;;;20596;6835;306837;-92
2022/01/14 09:45:10;;;;;;;15.60;14.03;;;7.10;43.90;;;;;;20755;6836;117390;-88
2022/01/14 09:47:35;;;;;;;13.30;12.00;;;7.20;44.30;;;;;;20751;6836;118492;-84
2022/01/14 09:50:01;;;;;;;13.40;12.10;;;7.10;44.70;;;;;;20730;6837;118908;-84
2022/01/14 09:52:27;;;;;;;14.35;13.10;;;7.00;45.20;;;;;;20545;6837;279369;-82
2022/01/14 09:54:52;;;;;;;13.93;12.60;;;7.20;43.90;;;;;;20751;6837;117798;-87
2022/01/14 09:57:17;;;;;;;14.02;12.52;;;7.30;44.00;;;;;;20750;6837;120321;-84
2022/01/14 09:59:43;;;;;;;12.87;11.63;;;7.30;44.20;;;;;;20749;6837;117381;-83
2022/01/14 10:02:09;;;;;;;13.20;11.80;;;7.20;44.40;;;;;;20733;6837;117438;-83
2022/01/14 10:04:35;;;;;;;13.83;12.63;;;7.10;44.60;;;;;;20457;6837;337348;-84
2022/01/14 10:07:03;;;;;;;15.18;13.88;;;7.60;42.70;;;;;;20535;6837;310478;-84
2022/01/14 10:09:36;;;;;;;14.20;13.00;;;7.60;42.70;;;;;;20520;6837;279603;-85
2022/01/14 10:12:15;;;;;;;13.30;12.10;;;7.90;41.90;;;;;;20509;6837;278819;-83
2022/01/14 10:14:40;;;;;;;13.25;12.15;;;8.20;41.70;;;;;;20526;6837;294252;-84
2022/01/14 10:17:06;;;;;;;11.60;10.60;;;8.40;41.10;;;;;;20736;6837;117840;-84
2022/01/14 10:19:32;;;;;;;13.02;11.85;;;8.40;41.50;;;;;;20592;6837;309988;-83
2022/01/14 10:21:59;;;;;;;11.93;10.87;;;8.40;41.50;;;;;;20800;6837;117123;-83
2022/01/14 10:24:25;;;;;;;12.87;11.77;;;8.30;41.90;;;;;;20615;6837;310426;-87
2022/01/14 10:26:59;;;;;;;13.47;12.37;;;8.40;42.30;;;;;;20530;6837;313146;-86
2022/01/14 10:29:24;;;;;;;13.07;11.97;;;8.60;41.20;;;;;;20533;6837;308610;-87
2022/01/14 10:31:50;;;;;;;11.43;10.43;;;8.80;40.60;;;;;;20749;6837;116674;-85
2022/01/14 10:34:15;;;;;;;12.02;11.02;;;8.80;41.10;;;;;;20530;6837;312490;-85
2022/01/14 10:36:44;;;;;;;13.05;11.93;;;8.80;40.90;;;;;;20543;6837;278603;-84
2022/01/14 10:39:25;;;;;;;13.00;11.83;;;9.10;40.40;;;;;;20540;6837;303735;-86
2022/01/14 10:41:50;;;;;;;11.90;10.90;;;9.10;40.40;;;;;;20540;6837;282465;-85
2022/01/14 10:44:31;;;;;;;11.48;10.38;;;9.30;40.10;;;;;;20735;6837;117987;-86
2022/01/14 10:47:16;;;;;;;11.80;10.80;;;9.20;40.70;;;;;;20544;6837;280782;-89
2022/01/14 10:49:46;;;;;;;10.07;9.27;;;9.20;40.30;;;;;;20780;6837;118542;-81
2022/01/14 10:52:14;;;;;;;10.67;9.77;;;9.10;40.90;;;;;;20757;6837;117649;-81
2022/01/14 10:54:43;;;;;;;9.47;8.67;;;8.90;41.40;;;;;;20737;6835;117537;-83
2022/01/14 10:57:14;;;;;;;9.47;8.67;;;8.70;41.90;;;;;;20739;6836;117665;-81
2022/01/14 10:59:41;;;;;;;8.80;8.10;;;8.50;42.60;;;;;;20744;6837;116993;-85
2022/01/14 11:02:07;;;;;;;9.60;8.70;;;8.50;42.80;;;;;;20730;6837;117173;-82
2022/01/14 11:04:35;;;;;;;10.88;9.98;;;8.60;40.90;;;;;;20434;6837;308357;-84
2022/01/14 11:07:01;;;;;;;10.17;9.07;;;8.60;41.00;;;;;;20748;6837;117194;-84
2022/01/14 11:09:29;;;;;;;10.15;9.18;;;8.50;41.30;;;;;;20739;6837;117665;-87
2022/01/14 11:11:53;;;;;;;10.68;9.88;;;8.50;41.30;;;;;;20522;6837;337700;-83
2022/01/14 11:14:20;;;;;;;11.48;9.48;;;8.60;40.80;;;;;;20759;6837;117436;-83
2022/01/14 11:16:46;;;;;;;9.87;9.07;;;8.50;40.70;;;;;;20754;6837;117199;-83
2022/01/14 11:19:13;;;;;;;10.97;9.30;;;8.20;41.50;;;;;;20747;6837;117227;-84
2022/01/14 11:24:24;;;;;;;11.23;10.23;;;8.40;40.90;;;;;;20759;6837;121818;-85
2022/01/14 11:26:53;;;;;;;10.27;9.27;;;8.40;41.90;;;;;;20757;6837;117344;-85
2022/01/14 11:29:20;;;;;;;10.73;9.93;;;8.40;41.50;;;;;;20528;6837;278215;-82
2022/01/14 11:31:44;;;;;;;10.80;9.95;;;8.60;40.90;;;;;;20531;6837;292620;-84
2022/01/14 11:34:10;;;;;;;10.57;9.77;;;8.90;40.10;;;;;;20516;6837;307381;-84
2022/01/14 11:36:59;;;;;;;9.85;9.07;;;9.30;39.80;;;;;;20648;6837;117485;-83
2022/01/14 11:39:22;;;;;;;10.07;9.17;;;9.30;40.10;;;;;;20512;6837;278488;-86
2022/01/14 11:41:48;;;;;;;9.30;8.60;;;9.40;39.60;;;;;;20732;6837;117245;-83
2022/01/14 11:44:14;;;;;;;10.80;9.85;;;9.40;40.10;;;;;;20517;6837;398605;-84
2022/01/14 11:46:43;;;;;;;10.23;9.43;;;9.50;39.30;;;;;;20446;6837;308144;-86
2022/01/14 11:49:32;;;;;;;9.25;8.43;;;9.70;39.10;;;;;;20747;6837;117314;-83
2022/01/14 11:51:58;;;;;;;9.80;9.00;;;9.70;39.50;;;;;;20566;6837;337202;-85
2022/01/14 11:54:22;;;;;;;8.20;7.60;;;9.70;39.00;;;;;;20798;6837;116343;-83
2022/01/14 11:56:48;;;;;;;8.50;7.90;;;9.70;39.70;;;;;;20715;6837;117972;-81
2022/01/14 11:59:17;;;;;;;9.40;8.70;;;9.50;40.10;;;;;;20550;6837;309125;-84
2022/01/14 12:01:43;;;;;;;9.27;8.57;;;9.50;39.50;;;;;;20543;6837;309013;-82
2022/01/14 12:04:08;;;;;;;9.25;8.50;;;9.70;39.10;;;;;;20498;6837;308049;-82
2022/01/14 12:06:54;;;;;;;9.07;8.37;;;9.90;39.60;;;;;;20542;6835;310393;-85
2022/01/14 12:09:23;;;;;;;7.80;7.20;;;9.90;39.00;;;;;;20754;6836;118015;-85
2022/01/14 12:12:23;;;;;;;7.83;7.10;;;9.90;39.00;;;;;;20753;6837;120939;-82
2022/01/14 12:14:56;;;;;;;7.60;7.00;;;9.60;39.70;;;;;;20750;6837;117573;-84
2022/01/14 12:17:15;;;;;;;7.90;7.30;;;9.30;40.30;;;;;;20738;6837;117463;-81
2022/01/14 12:19:39;;;;;;;7.33;6.73;;;9.10;40.60;;;;;;20755;6837;117501;-83
2022/01/14 12:22:04;;;;;;;7.90;7.30;;;8.90;41.00;;;;;;20529;6837;294911;-83
2022/01/14 12:24:31;;;;;;;8.27;7.18;;;9.10;40.50;;;;;;20754;6837;118431;-83
2022/01/14 12:27:18;;;;;;;8.23;7.53;;;9.10;40.70;;;;;;20544;6837;336158;-84
2022/01/14 12:29:37;;;;;;;7.73;7.13;;;9.30;40.10;;;;;;20657;6837;116088;-85
2022/01/14 12:32:06;;;;;;;7.90;7.30;;;9.30;40.40;;;;;;20746;6837;117255;-86
2022/01/14 12:34:31;;;;;;;7.27;6.70;;;9.20;40.70;;;;;;20755;6837;117218;-83
2022/01/14 12:36:58;;;;;;;7.43;6.73;;;9.10;41.10;;;;;;20748;6837;117431;-83
2022/01/14 12:39:24;;;;;;;7.97;7.47;;;9.00;41.30;;;;;;20536;6837;307660;-82
2022/01/14 12:41:52;;;;;;;8.33;7.63;;;9.10;40.50;;;;;;20749;6837;117766;-86
2022/01/14 12:44:18;;;;;;;7.63;6.83;;;9.20;40.60;;;;;;20739;6837;117286;-85
2022/01/14 12:49:22;;;;;;;7.67;7.03;;;9.30;40.50;;;;;;20746;6837;118603;-85
2022/01/14 12:51:47;;;;;;;8.07;7.47;;;9.40;40.70;;;;;;20527;6837;308585;-84
2022/01/14 12:54:13;;;;;;;7.07;6.57;;;9.60;39.70;;;;;;20674;6837;214337;-83
2022/01/14 12:56:39;;;;;;;8.10;6.70;;;9.70;40.00;;;;;;20540;6837;308923;-83
2022/01/14 12:59:05;;;;;;;7.15;6.65;;;9.80;39.40;;;;;;20541;6837;278091;-83
2022/01/14 13:01:36;;;;;;;6.93;6.43;;;10.00;37.60;;;;;;20738;6837;116210;-84
2022/01/14 13:04:05;;;;;;;6.87;6.30;;;10.00;38.00;;;;;;20514;6837;309653;-83
2022/01/14 13:06:44;;;;;;;6.63;6.03;;;10.10;37.10;;;;;;20536;6837;309028;-85